»·PEaware :: N513KQ KSNA-KBUR

N513KQ :: KSNA-KBUR

FLIGHT INFORMATION

Flight Status: Arrived
Operator: Privately registered:
United States
More flights under this callsign
Pilot: Stefan D. (14429)
Aircraft: PIPER PA-28R-201 ARROW
(P28R)
More flights by this aircraft type
Origin: KSNA John Wayne-Orange Co
United States
Destination: KBUR Bob Hope-Burbank
United States
More flights between these airports :: More routes between these airports
Route: +SLI V23 POPPR SMO125R SMO SMO311R SILEX
File this flight plan on PilotEdge
Remarks: TEC route CSTN1
Altitude:
(Current/Filed)
4,000ft
Speed:
(Current/Filed)
145kts
Departed: 12-Mar-18 08:20 AM
Arrived: 12-Mar-18 08:58 AM
Distance/Time
Traveled:
0nm/0:38
Distance/Time
To Go:
Arrived

Flight Plot

Page will automatically refresh every two minutes.


Map Options




Map Legend


Flown Route
Filed Route
Departure Airport
Arrival Airport
Navaid (VOR, NDB)
Fix

Horizontal Profiles

Position Reports

Time Latitude Longitude Heading Altitude Ground
Speed
12-Mar-18 08:06 33.672240 -117.866704 210 59ft 0kts
12-Mar-18 08:07 33.672240 -117.866704 210 59ft 0kts
12-Mar-18 08:08 33.672240 -117.866704 210 59ft 0kts
12-Mar-18 08:09 33.672240 -117.866704 210 59ft 0kts
12-Mar-18 08:10 33.672240 -117.866704 210 59ft 0kts
12-Mar-18 08:11 33.672240 -117.866704 210 59ft 0kts
12-Mar-18 08:12 33.672240 -117.866704 210 59ft 0kts
12-Mar-18 08:13 33.672240 -117.866704 210 59ft 0kts
12-Mar-18 08:14 33.672240 -117.866704 210 59ft 0kts
12-Mar-18 08:15 33.672312 -117.867353 294 59ft 5kts
12-Mar-18 08:16 33.674092 -117.867104 29 59ft 9kts
12-Mar-18 08:17 33.676798 -117.865384 27 59ft 15kts
12-Mar-18 08:18 33.679936 -117.863571 300 59ft 4kts
12-Mar-18 08:19 33.678788 -117.865005 207 59ft 51kts
12-Mar-18 08:20 33.662921 -117.881575 229 944ft 82kts
12-Mar-18 08:21 33.647833 -117.903669 230 1885ft 101kts
12-Mar-18 08:22 33.629373 -117.930244 230 2798ft 105kts
12-Mar-18 08:23 33.609889 -117.957028 230 3662ft 108kts
12-Mar-18 08:24 33.608808 -117.991799 290 4013ft 132kts
12-Mar-18 08:25 33.619966 -118.034122 290 4004ft 133kts
12-Mar-18 08:26 33.632101 -118.075108 308 4002ft 129kts
12-Mar-18 08:27 33.657750 -118.103877 323 4004ft 127kts
12-Mar-18 08:28 33.685090 -118.130898 322 4004ft 128kts
12-Mar-18 08:29 33.710871 -118.156604 322 4004ft 128kts
12-Mar-18 08:30 33.737329 -118.183026 322 4004ft 128kts
12-Mar-18 08:31 33.763930 -118.209615 321 4004ft 128kts
12-Mar-18 08:32 33.789913 -118.235597 321 3994ft 129kts
12-Mar-18 08:33 33.815860 -118.261571 321 3994ft 129kts
12-Mar-18 08:34 33.843158 -118.288920 321 3994ft 129kts
12-Mar-18 08:35 33.870450 -118.316288 321 3994ft 129kts
12-Mar-18 08:36 33.897695 -118.343626 321 3994ft 130kts
12-Mar-18 08:37 33.924952 -118.371005 321 3994ft 130kts
12-Mar-18 08:38 33.951770 -118.397964 321 3994ft 130kts
12-Mar-18 08:39 33.979092 -118.425455 322 3994ft 130kts
12-Mar-18 08:40 34.006468 -118.453026 322 3994ft 130kts
12-Mar-18 08:41 34.035341 -118.477140 328 3994ft 129kts
12-Mar-18 08:42 34.064696 -118.500928 328 3994ft 130kts
12-Mar-18 08:43 34.094381 -118.524989 328 3994ft 130kts
12-Mar-18 08:44 34.123349 -118.548531 329 3996ft 130kts
12-Mar-18 08:45 34.153501 -118.573031 329 3938ft 132kts
12-Mar-18 08:46 34.183916 -118.597656 328 3065ft 130kts
12-Mar-18 08:47 34.211639 -118.618405 327 3012ft 114kts
12-Mar-18 08:48 34.237324 -118.641038 327 2978ft 114kts
12-Mar-18 08:49 34.230699 -118.666674 166 2992ft 121kts
12-Mar-18 08:50 34.208481 -118.637436 123 2988ft 124kts
12-Mar-18 08:51 34.200789 -118.599231 88 2988ft 122kts
12-Mar-18 08:52 34.200326 -118.558592 88 2988ft 122kts
12-Mar-18 08:53 34.199868 -118.517980 88 2988ft 123kts
12-Mar-18 08:54 34.199407 -118.476870 89 2508ft 125kts
12-Mar-18 08:55 34.198722 -118.436568 88 1885ft 121kts
12-Mar-18 08:56 34.198099 -118.395436 88 1212ft 125kts
12-Mar-18 08:57 34.197817 -118.362252 89 737ft 22kts
12-Mar-18 08:58 34.198599 -118.360402 355 737ft 4kts
12-Mar-18 08:59 34.199530 -118.364023 263 737ft 10kts
12-Mar-18 09:00 34.200385 -118.363762 179 737ft 0kts
12-Mar-18 09:01 34.200385 -118.363762 179 737ft 0kts
12-Mar-18 09:02 34.200385 -118.363762 179 737ft 0kts
12-Mar-18 09:10 33.672042 -117.866896 307 59ft 0kts
12-Mar-18 09:11 33.672042 -117.866896 307 59ft 0kts
12-Mar-18 09:12 33.672042 -117.866896 307 59ft 0kts

Navigation Log

Ident Type
Flight plan parsing failed, navigation log unavailable